createdAt,value
2022-11-15T06:49:11.104Z,13.20
2022-11-15T06:51:57.094Z,12.90
2022-11-15T06:54:43.093Z,12.70
2022-11-15T06:57:29.173Z,12.60
2022-11-15T07:00:15.879Z,12.60
2022-11-15T07:03:02.077Z,12.50
2022-11-15T07:05:55.758Z,12.50
2022-11-15T07:08:42.785Z,12.50
2022-11-15T07:11:28.808Z,12.40
2022-11-15T07:14:14.700Z,12.50
2022-11-15T07:17:00.713Z,12.50
2022-11-15T07:19:46.655Z,12.50
2022-11-15T07:22:32.634Z,12.50
2022-11-15T07:25:18.631Z,12.50
2022-11-15T07:28:05.119Z,12.50
2022-11-15T07:30:51.359Z,12.50
2022-11-15T07:33:37.273Z,12.50
2022-11-15T07:36:23.203Z,12.50
2022-11-15T07:39:09.207Z,12.50
2022-11-15T07:42:14.978Z,12.50
2022-11-15T07:45:00.668Z,12.50
2022-11-15T07:47:47.890Z,12.50
2022-11-15T07:50:33.504Z,12.50
2022-11-15T07:53:19.458Z,12.60
2022-11-15T07:56:08.465Z,12.50
2022-11-15T07:58:54.455Z,12.50
2022-11-15T08:01:40.553Z,12.50
2022-11-15T08:04:26.501Z,12.50
2022-11-15T08:07:12.437Z,12.50
2022-11-15T08:09:59.486Z,12.60
2022-11-15T08:12:45.323Z,12.60
2022-11-15T08:15:31.806Z,12.60
2022-11-15T08:18:18.063Z,12.50
2022-11-15T08:21:04.611Z,12.60
2022-11-15T08:23:51.675Z,12.60
2022-11-15T08:26:37.892Z,12.60
2022-11-15T08:29:23.457Z,12.60
2022-11-15T08:32:09.871Z,12.60
2022-11-15T08:34:55.592Z,12.50
2022-11-15T08:37:41.507Z,12.50
2022-11-15T08:40:28.062Z,12.50
2022-11-15T08:43:13.757Z,12.60
2022-11-15T08:46:00.161Z,12.60
2022-11-15T08:48:46.388Z,12.60
2022-11-15T08:51:32.135Z,12.60
2022-11-15T08:54:18.088Z,12.70
2022-11-15T08:57:04.158Z,12.70
2022-11-15T08:59:50.233Z,12.70
2022-11-15T09:02:38.297Z,12.70
2022-11-15T09:05:24.390Z,12.80
2022-11-15T09:08:32.753Z,12.80
2022-11-15T09:11:17.558Z,12.80
2022-11-15T09:14:03.678Z,12.90
2022-11-15T09:16:49.683Z,13.00
2022-11-15T09:19:35.583Z,13.00
2022-11-15T09:22:21.620Z,13.10
2022-11-15T09:25:10.898Z,13.20
2022-11-15T09:27:57.834Z,13.10
2022-11-15T09:30:44.116Z,13.10
2022-11-15T09:33:30.636Z,13.10
2022-11-15T09:36:17.794Z,13.20
2022-11-15T09:39:03.808Z,13.10
2022-11-15T09:42:11.900Z,13.10
2022-11-15T09:45:24.951Z,13.00
2022-11-15T09:48:38.458Z,13.00
2022-11-15T09:51:32.058Z,13.10
2022-11-15T09:56:53.992Z,13.10
2022-11-15T09:59:55.061Z,13.20
2022-11-15T10:02:40.114Z,13.20
2022-11-15T10:05:13.567Z,13.20
2022-11-15T10:08:19.675Z,13.10
2022-11-15T10:10:56.890Z,13.10
2022-11-15T10:13:40.506Z,13.10
2022-11-15T10:16:24.445Z,13.00
2022-11-15T10:19:21.210Z,13.00
2022-11-15T10:21:58.719Z,13.00
2022-11-15T10:24:31.954Z,13.00
2022-11-15T10:26:59.352Z,13.00
2022-11-15T10:29:27.501Z,13.00
2022-11-15T10:31:54.949Z,13.10
2022-11-15T10:34:24.632Z,13.10
2022-11-15T10:37:01.212Z,13.10
2022-11-15T10:39:29.000Z,13.20
2022-11-15T10:41:56.846Z,13.20
2022-11-15T10:44:27.506Z,13.20
2022-11-15T10:46:58.006Z,13.20
2022-11-15T10:49:30.768Z,13.20
2022-11-15T10:52:17.652Z,13.20
2022-11-15T10:54:51.086Z,13.20
2022-11-15T10:57:22.116Z,13.20
2022-11-15T10:59:54.489Z,13.20
2022-11-15T11:02:46.849Z,13.30
2022-11-15T11:05:41.021Z,13.30
2022-11-15T11:08:12.177Z,13.30
2022-11-15T11:11:01.423Z,13.40
2022-11-15T11:13:38.636Z,13.40
2022-11-15T11:16:15.042Z,13.40
2022-11-15T11:19:03.359Z,13.40
2022-11-15T11:21:50.717Z,13.40
2022-11-15T11:24:46.973Z,13.40
2022-11-15T11:27:41.449Z,13.40
2022-11-15T11:30:53.663Z,13.40
2022-11-15T11:33:43.269Z,13.50
2022-11-15T11:36:28.453Z,13.40
2022-11-15T11:39:24.809Z,13.40
2022-11-15T11:42:05.368Z,13.40
2022-11-15T11:45:11.771Z,13.30
2022-11-15T11:47:49.617Z,13.40
2022-11-15T11:50:21.496Z,13.40
2022-11-15T11:52:57.401Z,13.40
2022-11-15T11:55:39.574Z,13.50
2022-11-15T11:58:18.516Z,13.50
2022-11-15T12:00:57.020Z,13.50
2022-11-15T12:03:41.652Z,13.50
2022-11-15T12:06:46.475Z,13.50
2022-11-15T12:09:35.945Z,13.50
2022-11-15T12:12:19.548Z,13.60
2022-11-15T12:15:01.764Z,13.60
2022-11-15T12:17:34.597Z,13.60
2022-11-15T12:20:08.834Z,13.60
2022-11-15T12:22:50.587Z,13.70
2022-11-15T12:25:40.912Z,13.70
2022-11-15T12:28:37.313Z,13.70
2022-11-15T12:31:39.912Z,13.60
2022-11-15T12:34:47.620Z,13.60
2022-11-15T12:37:39.588Z,13.60
2022-11-15T12:40:21.976Z,13.60
2022-11-15T12:43:03.745Z,13.70
2022-11-15T12:45:37.886Z,13.70
2022-11-15T12:48:17.703Z,13.70
2022-11-15T12:50:56.167Z,13.70
2022-11-15T12:53:30.735Z,13.70
2022-11-15T12:56:18.907Z,13.70
2022-11-15T12:59:32.274Z,13.70
2022-11-15T13:02:01.266Z,13.70
2022-11-15T13:04:30.424Z,13.70
2022-11-15T13:06:59.725Z,13.70
2022-11-15T13:09:33.266Z,13.70
2022-11-15T13:12:15.405Z,13.70
2022-11-15T13:14:47.512Z,13.70
2022-11-15T13:17:20.409Z,13.80
2022-11-15T13:19:53.314Z,13.80
2022-11-15T13:22:39.326Z,13.80
2022-11-15T13:25:34.294Z,13.80
2022-11-15T13:28:07.585Z,13.80
2022-11-15T13:30:35.402Z,13.90
2022-11-15T13:33:17.323Z,13.90
2022-11-15T13:35:49.047Z,13.90
2022-11-15T13:38:30.902Z,13.90
2022-11-15T13:41:00.215Z,13.80
2022-11-15T13:43:32.183Z,13.80
2022-11-15T13:46:13.391Z,13.80
2022-11-15T13:48:42.546Z,13.80
2022-11-15T13:51:22.231Z,13.80
2022-11-15T13:53:56.244Z,13.80
2022-11-15T13:56:23.908Z,13.80
2022-11-15T13:58:51.344Z,13.80
2022-11-15T14:01:21.723Z,13.70
2022-11-15T14:04:00.625Z,13.70
2022-11-15T14:06:30.759Z,13.80
2022-11-15T14:09:10.444Z,13.90
2022-11-15T14:11:38.613Z,13.80
2022-11-15T14:14:16.718Z,13.80
2022-11-15T14:16:46.716Z,13.70
2022-11-15T14:19:26.045Z,13.70
2022-11-15T14:22:10.076Z,13.70
2022-11-15T14:24:38.191Z,13.70
2022-11-15T14:27:29.154Z,13.70
2022-11-15T14:29:56.555Z,13.60
2022-11-15T14:32:27.005Z,13.60
2022-11-15T14:34:58.804Z,14.00
2022-11-15T14:37:27.300Z,14.60
2022-11-15T14:39:55.582Z,15.10
2022-11-15T14:42:23.897Z,15.10
2022-11-15T14:44:51.785Z,14.60
2022-11-15T14:47:19.667Z,14.20
2022-11-15T14:49:47.297Z,14.00
2022-11-15T14:52:31.872Z,13.90
2022-11-15T14:55:02.406Z,13.80
2022-11-15T14:57:30.877Z,13.80
2022-11-15T14:59:58.367Z,13.80
2022-11-15T15:02:40.242Z,13.70
2022-11-15T15:05:33.357Z,13.70
2022-11-15T15:08:01.229Z,13.70
2022-11-15T15:10:41.453Z,13.70
2022-11-15T15:13:22.037Z,13.70
2022-11-15T15:15:50.572Z,13.70
2022-11-15T15:18:19.095Z,13.60
2022-11-15T15:20:58.346Z,13.60
2022-11-15T15:23:27.678Z,13.60
2022-11-15T15:25:55.017Z,13.50
2022-11-15T15:28:22.387Z,13.60
2022-11-15T15:30:50.508Z,13.50
2022-11-15T15:33:17.892Z,13.50
2022-11-15T15:35:45.281Z,13.50
2022-11-15T15:38:13.532Z,13.50
2022-11-15T15:40:40.911Z,13.50
2022-11-15T15:43:10.152Z,13.50
2022-11-15T15:45:40.211Z,13.50
2022-11-15T15:48:12.321Z,13.50
2022-11-15T15:50:40.206Z,13.50
2022-11-15T15:53:09.020Z,13.50
2022-11-15T15:55:36.416Z,13.50
2022-11-15T15:58:04.365Z,13.40
2022-11-15T16:00:34.018Z,13.50
2022-11-15T16:03:01.431Z,13.40
2022-11-15T16:05:28.820Z,13.40
2022-11-15T16:07:56.129Z,13.40
2022-11-15T16:10:29.639Z,13.40
2022-11-15T16:12:58.203Z,13.40
2022-11-15T16:15:30.004Z,13.40
2022-11-15T16:17:59.546Z,13.40
2022-11-15T16:20:40.565Z,13.40
2022-11-15T16:23:10.223Z,13.40
2022-11-15T16:25:56.603Z,14.10
2022-11-15T16:28:25.290Z,14.30
2022-11-15T16:31:02.610Z,14.00
2022-11-15T16:33:32.179Z,13.80
2022-11-15T16:35:59.913Z,13.60
2022-11-15T16:38:27.400Z,13.50
2022-11-15T16:40:54.842Z,13.50
2022-11-15T16:43:22.385Z,13.50
2022-11-15T16:45:51.550Z,13.50
2022-11-15T16:48:27.444Z,13.50
2022-11-15T16:50:56.997Z,13.40
2022-11-15T16:53:27.829Z,13.40
2022-11-15T16:55:55.753Z,13.40
2022-11-15T16:58:23.833Z,13.40
2022-11-15T17:00:53.302Z,13.40
2022-11-15T17:03:21.928Z,13.30
2022-11-15T17:05:50.063Z,13.30
2022-11-15T17:08:17.515Z,13.30
2022-11-15T17:10:44.869Z,13.30
2022-11-15T17:13:15.341Z,13.30
2022-11-15T17:15:42.761Z,13.30
2022-11-15T17:18:13.167Z,13.30
2022-11-15T17:20:41.678Z,13.30
2022-11-15T17:23:14.749Z,13.30
2022-11-15T17:25:42.495Z,13.30
2022-11-15T17:28:10.472Z,13.30
2022-11-15T17:30:40.728Z,13.30
2022-11-15T17:33:08.147Z,13.20
2022-11-15T17:35:35.563Z,13.30
2022-11-15T17:38:02.912Z,13.20
2022-11-15T17:40:30.260Z,13.20
2022-11-15T17:42:57.596Z,13.20
2022-11-15T17:45:25.013Z,13.20
2022-11-15T17:47:53.764Z,13.20
2022-11-15T17:50:21.107Z,13.20
2022-11-15T17:52:48.503Z,13.20
2022-11-15T17:55:15.859Z,13.30
2022-11-15T17:57:44.225Z,13.20
2022-11-15T18:00:12.332Z,13.20
2022-11-15T18:02:39.650Z,13.20
2022-11-15T18:05:07.667Z,13.20
2022-11-15T18:07:35.117Z,13.20
2022-11-15T18:10:02.451Z,13.20
2022-11-15T18:12:29.858Z,13.20
2022-11-15T18:14:58.054Z,13.20
2022-11-15T18:17:25.512Z,13.40
2022-11-15T18:19:52.874Z,13.30
2022-11-15T18:22:20.558Z,13.30
2022-11-15T18:24:48.284Z,13.20
2022-11-15T18:27:15.713Z,13.20
2022-11-15T18:29:44.795Z,13.20
2022-11-15T18:32:15.062Z,13.20
2022-11-15T18:34:42.352Z,13.20
2022-11-15T18:37:09.960Z,13.20
2022-11-15T18:39:37.878Z,13.20
2022-11-15T18:42:05.658Z,13.20
2022-11-15T18:44:33.033Z,13.10
2022-11-15T18:47:00.428Z,13.20
2022-11-15T18:49:27.975Z,13.20
2022-11-15T18:51:56.092Z,13.20
2022-11-15T18:54:28.105Z,13.20
2022-11-15T18:56:57.025Z,13.20
2022-11-15T18:59:24.797Z,13.20
2022-11-15T19:01:52.248Z,13.20
2022-11-15T19:04:20.906Z,13.20
2022-11-15T19:06:50.492Z,13.20
2022-11-15T19:09:19.247Z,13.20
2022-11-15T19:11:48.713Z,13.10
2022-11-15T19:14:17.676Z,13.10
2022-11-15T19:16:55.169Z,13.10
2022-11-15T19:19:24.945Z,13.10
2022-11-15T19:21:53.005Z,13.10
2022-11-15T19:24:20.891Z,13.10
2022-11-15T19:26:48.312Z,13.10
2022-11-15T19:29:17.259Z,13.10
2022-11-15T19:31:44.988Z,13.10
2022-11-15T19:34:12.908Z,13.10
2022-11-15T19:36:42.288Z,13.10
2022-11-15T19:39:12.917Z,13.10
2022-11-15T19:41:44.480Z,13.10
2022-11-15T19:44:13.022Z,13.10
2022-11-15T19:46:40.619Z,13.10
2022-11-15T19:49:10.853Z,13.10
2022-11-15T19:51:41.599Z,13.10
2022-11-15T19:54:10.314Z,13.20
2022-11-15T19:56:39.706Z,13.10
2022-11-15T19:59:07.597Z,13.10
2022-11-15T20:01:37.995Z,13.10
2022-11-15T20:04:06.579Z,13.10
2022-11-15T20:06:36.327Z,13.10
2022-11-15T20:09:04.021Z,13.10
2022-11-15T20:11:31.777Z,13.10
2022-11-15T20:14:02.247Z,13.10
2022-11-15T20:16:29.938Z,13.10
2022-11-15T20:18:57.637Z,13.10
2022-11-15T20:21:25.196Z,13.10
2022-11-15T20:23:52.809Z,13.10
2022-11-15T20:26:21.690Z,13.10
2022-11-15T20:28:49.649Z,13.10
2022-11-15T20:31:17.673Z,13.10
2022-11-15T20:33:45.109Z,13.10
2022-11-15T20:36:16.342Z,13.10
2022-11-15T20:38:45.972Z,13.10
2022-11-15T20:41:13.903Z,13.10
2022-11-15T20:43:43.630Z,13.10
2022-11-15T20:46:12.590Z,13.10
2022-11-15T20:48:41.745Z,13.10
2022-11-15T20:51:15.520Z,13.10
2022-11-15T20:53:44.509Z,13.10
2022-11-15T20:56:18.593Z,13.10
2022-11-15T20:58:47.079Z,13.10
2022-11-15T21:01:16.458Z,13.10
2022-11-15T21:03:44.838Z,13.10
2022-11-15T21:06:13.178Z,13.10
2022-11-15T21:09:00.183Z,13.10
2022-11-15T21:11:47.075Z,13.10
2022-11-15T21:14:14.756Z,13.00
2022-11-15T21:16:42.112Z,13.00
2022-11-15T21:19:10.194Z,13.00
2022-11-15T21:21:38.008Z,13.10
2022-11-15T21:24:08.355Z,13.10
2022-11-15T21:26:36.979Z,13.10
2022-11-15T21:29:05.120Z,13.10
2022-11-15T21:31:33.034Z,13.10
2022-11-15T21:34:03.953Z,13.00
2022-11-15T21:36:31.488Z,13.00
2022-11-15T21:38:58.872Z,13.00
2022-11-15T21:41:26.337Z,13.00
2022-11-15T21:43:58.049Z,13.00
2022-11-15T21:46:25.628Z,13.00
2022-11-15T21:48:53.014Z,13.10
2022-11-15T21:51:20.380Z,13.10
2022-11-15T21:53:47.899Z,13.00
2022-11-15T21:56:15.514Z,13.00
2022-11-15T21:58:42.742Z,13.00
2022-11-15T22:01:30.127Z,13.00
2022-11-15T22:03:57.680Z,13.10
2022-11-15T22:06:24.985Z,13.10
2022-11-15T22:08:52.388Z,13.00
2022-11-15T22:11:20.412Z,13.00
2022-11-15T22:13:47.816Z,13.00
2022-11-15T22:16:15.181Z,13.00
2022-11-15T22:18:42.791Z,13.00
2022-11-15T22:21:15.605Z,13.00
2022-11-15T22:23:44.268Z,13.00
2022-11-15T22:26:14.414Z,13.00
2022-11-15T22:28:43.657Z,13.00
2022-11-15T22:31:11.959Z,13.00
2022-11-15T22:33:39.580Z,13.00
2022-11-15T22:36:07.990Z,13.00
2022-11-15T22:38:35.855Z,13.00
2022-11-15T22:41:03.836Z,13.00
2022-11-15T22:43:31.331Z,13.00
2022-11-15T22:46:00.745Z,13.00
2022-11-15T22:48:37.296Z,13.00
2022-11-15T22:51:06.034Z,13.00
2022-11-15T22:53:33.743Z,13.00
2022-11-15T22:56:03.188Z,13.00
2022-11-15T22:58:32.253Z,13.00
2022-11-15T23:01:02.207Z,13.00
2022-11-15T23:03:30.624Z,13.00
2022-11-15T23:06:03.960Z,13.00
2022-11-15T23:08:31.700Z,12.90
2022-11-15T23:11:24.035Z,13.00
2022-11-15T23:13:52.195Z,13.00
2022-11-15T23:16:23.803Z,13.00
2022-11-15T23:18:54.411Z,13.00
2022-11-15T23:22:04.063Z,13.00
2022-11-15T23:24:32.779Z,13.00
2022-11-15T23:27:02.831Z,12.90
2022-11-15T23:29:30.731Z,12.90
2022-11-15T23:32:16.898Z,13.00
2022-11-15T23:34:45.895Z,12.90
2022-11-15T23:37:15.439Z,12.90
2022-11-15T23:39:42.838Z,12.90
2022-11-15T23:42:19.692Z,12.90
2022-11-15T23:44:50.418Z,13.00
2022-11-15T23:47:19.346Z,12.90
2022-11-15T23:49:46.831Z,12.90
2022-11-15T23:52:15.551Z,12.90
2022-11-15T23:54:43.471Z,12.90
2022-11-15T23:57:12.371Z,12.90
2022-11-15T23:59:40.860Z,12.90
